Terminal Aerodrome Forecast
Issued by NWS New Orleans/Baton Rouge, LA

Home | Current Version | Previous Version | Text Only | Print | Product List | Glossary On
Versions: 1 2 3 4 5 6 7 8 9 10 11 12 13 14 15 16 17 18 19 20 21 22 23 24 25 26 27 28 29 30 31
000
FTUS44 KLIX 171730
TAFNEW
TAF
KNEW 171730Z 1718/1818 18008KT P6SM SKC
     FM180100 17007KT P6SM FEW015 FEW250
     FM180800 19007KT P6SM BKN008 BKN140
     FM181500 21011KT P6SM SCT008 BKN035=

USA.gov is the U.S. government's official web portal to all federal, state and local government web resources and services.